sensor_id;sensor_type;location;lat;lon;timestamp;temperature;humidity
35445;DHT22;21562;49.476;6.086;2022-12-29T00:02:15;10.60;99.90
35445;DHT22;21562;49.476;6.086;2022-12-29T00:04:41;10.60;99.90
35445;DHT22;21562;49.476;6.086;2022-12-29T00:07:07;10.70;99.90
35445;DHT22;21562;49.476;6.086;2022-12-29T00:09:33;10.60;99.90
35445;DHT22;21562;49.476;6.086;2022-12-29T00:12:00;10.80;99.90
35445;DHT22;21562;49.476;6.086;2022-12-29T00:14:27;10.70;99.90
35445;DHT22;21562;49.476;6.086;2022-12-29T00:17:11;10.80;99.90
35445;DHT22;21562;49.476;6.086;2022-12-29T00:19:37;10.70;99.90
35445;DHT22;21562;49.476;6.086;2022-12-29T00:22:21;10.60;99.90
35445;DHT22;21562;49.476;6.086;2022-12-29T00:25:08;10.50;99.90
35445;DHT22;21562;49.476;6.086;2022-12-29T00:27:35;10.50;99.90
35445;DHT22;21562;49.476;6.086;2022-12-29T00:30:20;10.60;99.90
35445;DHT22;21562;49.476;6.086;2022-12-29T00:33:18;10.50;99.90
35445;DHT22;21562;49.476;6.086;2022-12-29T00:36:07;10.70;99.90
35445;DHT22;21562;49.476;6.086;2022-12-29T00:38:36;10.70;99.90
35445;DHT22;21562;49.476;6.086;2022-12-29T00:41:21;10.80;99.90
35445;DHT22;21562;49.476;6.086;2022-12-29T00:44:07;10.90;99.90
35445;DHT22;21562;49.476;6.086;2022-12-29T00:46:40;10.90;99.90
35445;DHT22;21562;49.476;6.086;2022-12-29T00:49:08;11.00;99.90
35445;DHT22;21562;49.476;6.086;2022-12-29T00:51:54;10.90;99.90
35445;DHT22;21562;49.476;6.086;2022-12-29T00:54:20;10.80;99.90
35445;DHT22;21562;49.476;6.086;2022-12-29T00:56:48;10.90;99.90
35445;DHT22;21562;49.476;6.086;2022-12-29T00:59:14;11.00;99.90
35445;DHT22;21562;49.476;6.086;2022-12-29T01:01:39;10.90;99.90
35445;DHT22;21562;49.476;6.086;2022-12-29T01:04:06;10.80;99.90
35445;DHT22;21562;49.476;6.086;2022-12-29T01:06:32;10.90;99.90
35445;DHT22;21562;49.476;6.086;2022-12-29T01:08:58;10.90;99.90
35445;DHT22;21562;49.476;6.086;2022-12-29T01:11:42;10.80;99.90
35445;DHT22;21562;49.476;6.086;2022-12-29T01:14:08;10.60;99.90
35445;DHT22;21562;49.476;6.086;2022-12-29T01:16:34;10.60;99.90
35445;DHT22;21562;49.476;6.086;2022-12-29T01:19:01;10.70;99.90
35445;DHT22;21562;49.476;6.086;2022-12-29T01:21:27;10.60;99.90
35445;DHT22;21562;49.476;6.086;2022-12-29T01:23:53;10.50;99.90
35445;DHT22;21562;49.476;6.086;2022-12-29T01:26:18;10.40;99.90
35445;DHT22;21562;49.476;6.086;2022-12-29T01:28:45;10.50;99.90
35445;DHT22;21562;49.476;6.086;2022-12-29T01:31:12;10.60;99.90
35445;DHT22;21562;49.476;6.086;2022-12-29T01:33:38;10.70;99.90
35445;DHT22;21562;49.476;6.086;2022-12-29T01:36:07;10.70;99.90
35445;DHT22;21562;49.476;6.086;2022-12-29T01:38:34;10.60;99.90
35445;DHT22;21562;49.476;6.086;2022-12-29T01:41:00;10.50;99.90
35445;DHT22;21562;49.476;6.086;2022-12-29T01:43:47;10.40;99.90
35445;DHT22;21562;49.476;6.086;2022-12-29T01:49:05;10.70;99.90
35445;DHT22;21562;49.476;6.086;2022-12-29T01:51:41;10.70;99.90
35445;DHT22;21562;49.476;6.086;2022-12-29T01:56:45;10.80;99.90
35445;DHT22;21562;49.476;6.086;2022-12-29T01:59:15;10.90;99.90
35445;DHT22;21562;49.476;6.086;2022-12-29T02:01:44;10.90;99.90
35445;DHT22;21562;49.476;6.086;2022-12-29T02:04:11;10.90;99.90
35445;DHT22;21562;49.476;6.086;2022-12-29T02:06:46;10.60;99.90
35445;DHT22;21562;49.476;6.086;2022-12-29T02:09:13;10.70;99.90
35445;DHT22;21562;49.476;6.086;2022-12-29T02:11:39;10.90;99.90
35445;DHT22;21562;49.476;6.086;2022-12-29T02:14:12;10.80;99.90
35445;DHT22;21562;49.476;6.086;2022-12-29T02:17:25;10.90;99.90
35445;DHT22;21562;49.476;6.086;2022-12-29T02:40:55;11.20;99.90
35445;DHT22;21562;49.476;6.086;2022-12-29T02:46:25;11.00;99.90
35445;DHT22;21562;49.476;6.086;2022-12-29T02:51:37;11.20;99.90
35445;DHT22;21562;49.476;6.086;2022-12-29T02:54:05;11.10;99.90
35445;DHT22;21562;49.476;6.086;2022-12-29T02:56:50;11.20;99.90
35445;DHT22;21562;49.476;6.086;2022-12-29T02:59:16;11.20;99.90
35445;DHT22;21562;49.476;6.086;2022-12-29T03:02:02;11.20;99.90
35445;DHT22;21562;49.476;6.086;2022-12-29T03:10:30;11.30;99.90
35445;DHT22;21562;49.476;6.086;2022-12-29T03:21:38;11.20;99.90
35445;DHT22;21562;49.476;6.086;2022-12-29T03:24:26;11.20;99.90
35445;DHT22;21562;49.476;6.086;2022-12-29T03:26:55;11.20;99.90
35445;DHT22;21562;49.476;6.086;2022-12-29T03:29:23;11.20;99.90
35445;DHT22;21562;49.476;6.086;2022-12-29T03:31:51;11.20;99.90
35445;DHT22;21562;49.476;6.086;2022-12-29T03:34:19;11.10;99.90
35445;DHT22;21562;49.476;6.086;2022-12-29T03:36:52;11.00;99.90
35445;DHT22;21562;49.476;6.086;2022-12-29T03:39:21;11.10;99.90
35445;DHT22;21562;49.476;6.086;2022-12-29T03:41:51;11.10;99.90
35445;DHT22;21562;49.476;6.086;2022-12-29T03:44:21;11.10;99.90
35445;DHT22;21562;49.476;6.086;2022-12-29T03:46:56;11.10;99.90
35445;DHT22;21562;49.476;6.086;2022-12-29T03:49:22;11.10;99.90
35445;DHT22;21562;49.476;6.086;2022-12-29T03:51:47;11.10;99.90
35445;DHT22;21562;49.476;6.086;2022-12-29T03:54:13;11.00;99.90
35445;DHT22;21562;49.476;6.086;2022-12-29T03:56:39;10.90;99.90
35445;DHT22;21562;49.476;6.086;2022-12-29T03:59:04;10.80;99.90
35445;DHT22;21562;49.476;6.086;2022-12-29T04:01:30;10.80;99.90
35445;DHT22;21562;49.476;6.086;2022-12-29T04:03:56;11.00;99.90
35445;DHT22;21562;49.476;6.086;2022-12-29T04:06:21;10.90;99.90
35445;DHT22;21562;49.476;6.086;2022-12-29T04:08:47;11.10;99.90
35445;DHT22;21562;49.476;6.086;2022-12-29T04:11:13;11.00;99.90
35445;DHT22;21562;49.476;6.086;2022-12-29T04:13:38;11.00;99.90
35445;DHT22;21562;49.476;6.086;2022-12-29T04:16:06;11.10;99.90
35445;DHT22;21562;49.476;6.086;2022-12-29T04:18:32;11.20;99.90
35445;DHT22;21562;49.476;6.086;2022-12-29T04:20:58;11.10;99.90
35445;DHT22;21562;49.476;6.086;2022-12-29T04:23:27;11.10;99.90
35445;DHT22;21562;49.476;6.086;2022-12-29T04:25:53;11.10;99.90
35445;DHT22;21562;49.476;6.086;2022-12-29T04:28:19;11.20;99.90
35445;DHT22;21562;49.476;6.086;2022-12-29T04:30:45;11.20;99.90
35445;DHT22;21562;49.476;6.086;2022-12-29T04:33:11;11.10;99.90
35445;DHT22;21562;49.476;6.086;2022-12-29T04:35:37;11.10;99.90
35445;DHT22;21562;49.476;6.086;2022-12-29T04:38:03;11.10;99.90
35445;DHT22;21562;49.476;6.086;2022-12-29T04:40:29;11.00;99.90
35445;DHT22;21562;49.476;6.086;2022-12-29T04:42:54;11.10;99.90
35445;DHT22;21562;49.476;6.086;2022-12-29T04:45:20;11.20;99.90
35445;DHT22;21562;49.476;6.086;2022-12-29T04:47:46;11.10;99.90
35445;DHT22;21562;49.476;6.086;2022-12-29T04:50:11;11.00;99.90
35445;DHT22;21562;49.476;6.086;2022-12-29T04:52:37;11.10;99.90
35445;DHT22;21562;49.476;6.086;2022-12-29T04:55:04;11.00;99.90
35445;DHT22;21562;49.476;6.086;2022-12-29T04:57:30;10.90;99.90
35445;DHT22;21562;49.476;6.086;2022-12-29T04:59:56;10.90;99.90
35445;DHT22;21562;49.476;6.086;2022-12-29T05:02:22;10.80;99.90
35445;DHT22;21562;49.476;6.086;2022-12-29T05:04:48;10.70;99.90
35445;DHT22;21562;49.476;6.086;2022-12-29T05:07:13;10.50;99.90
35445;DHT22;21562;49.476;6.086;2022-12-29T05:09:39;10.40;99.90
35445;DHT22;21562;49.476;6.086;2022-12-29T05:12:05;10.50;99.90
35445;DHT22;21562;49.476;6.086;2022-12-29T05:14:32;10.50;99.90
35445;DHT22;21562;49.476;6.086;2022-12-29T05:16:57;10.40;99.90
35445;DHT22;21562;49.476;6.086;2022-12-29T05:19:23;10.50;99.90
35445;DHT22;21562;49.476;6.086;2022-12-29T05:21:49;10.40;99.90
35445;DHT22;21562;49.476;6.086;2022-12-29T05:24:14;10.30;99.90
35445;DHT22;21562;49.476;6.086;2022-12-29T05:26:41;10.40;99.90
35445;DHT22;21562;49.476;6.086;2022-12-29T05:29:06;10.50;99.90
35445;DHT22;21562;49.476;6.086;2022-12-29T05:31:32;10.40;99.90
35445;DHT22;21562;49.476;6.086;2022-12-29T05:33:58;10.40;99.90
35445;DHT22;21562;49.476;6.086;2022-12-29T05:36:24;10.30;99.90
35445;DHT22;21562;49.476;6.086;2022-12-29T05:38:50;10.30;99.90
35445;DHT22;21562;49.476;6.086;2022-12-29T05:41:16;10.30;99.90
35445;DHT22;21562;49.476;6.086;2022-12-29T05:43:42;10.20;99.90
35445;DHT22;21562;49.476;6.086;2022-12-29T05:46:07;10.20;99.90
35445;DHT22;21562;49.476;6.086;2022-12-29T05:48:33;10.30;99.90
35445;DHT22;21562;49.476;6.086;2022-12-29T05:50:59;10.30;99.90
35445;DHT22;21562;49.476;6.086;2022-12-29T05:53:24;10.30;99.90
35445;DHT22;21562;49.476;6.086;2022-12-29T05:55:50;10.30;99.90
35445;DHT22;21562;49.476;6.086;2022-12-29T05:58:17;10.30;99.90
35445;DHT22;21562;49.476;6.086;2022-12-29T06:00:43;10.20;99.90
35445;DHT22;21562;49.476;6.086;2022-12-29T06:03:08;10.30;99.90
35445;DHT22;21562;49.476;6.086;2022-12-29T06:05:34;10.30;99.90
35445;DHT22;21562;49.476;6.086;2022-12-29T06:08:00;10.40;99.90
35445;DHT22;21562;49.476;6.086;2022-12-29T06:10:25;10.30;99.90
35445;DHT22;21562;49.476;6.086;2022-12-29T06:12:51;10.20;99.90
35445;DHT22;21562;49.476;6.086;2022-12-29T06:15:17;10.20;99.90
35445;DHT22;21562;49.476;6.086;2022-12-29T06:17:43;10.10;99.90
35445;DHT22;21562;49.476;6.086;2022-12-29T06:20:09;10.20;99.90
35445;DHT22;21562;49.476;6.086;2022-12-29T06:22:36;10.20;99.90
35445;DHT22;21562;49.476;6.086;2022-12-29T06:25:02;10.30;99.90
35445;DHT22;21562;49.476;6.086;2022-12-29T06:27:28;10.30;99.90
35445;DHT22;21562;49.476;6.086;2022-12-29T06:29:54;10.40;99.90
35445;DHT22;21562;49.476;6.086;2022-12-29T06:32:20;10.40;99.90
35445;DHT22;21562;49.476;6.086;2022-12-29T06:34:46;10.40;99.90
35445;DHT22;21562;49.476;6.086;2022-12-29T06:37:12;10.20;99.90
35445;DHT22;21562;49.476;6.086;2022-12-29T06:39:38;10.30;99.90
35445;DHT22;21562;49.476;6.086;2022-12-29T06:42:04;10.30;99.90
35445;DHT22;21562;49.476;6.086;2022-12-29T06:44:30;10.40;99.90
35445;DHT22;21562;49.476;6.086;2022-12-29T06:46:55;10.50;99.90
35445;DHT22;21562;49.476;6.086;2022-12-29T06:49:23;10.40;99.90
35445;DHT22;21562;49.476;6.086;2022-12-29T06:51:48;10.40;99.90
35445;DHT22;21562;49.476;6.086;2022-12-29T06:54:14;10.40;99.90
35445;DHT22;21562;49.476;6.086;2022-12-29T06:56:40;10.40;99.90
35445;DHT22;21562;49.476;6.086;2022-12-29T06:59:06;10.60;99.90
35445;DHT22;21562;49.476;6.086;2022-12-29T07:01:31;10.50;99.90
35445;DHT22;21562;49.476;6.086;2022-12-29T07:03:57;10.50;99.90
35445;DHT22;21562;49.476;6.086;2022-12-29T07:06:23;10.40;99.90
35445;DHT22;21562;49.476;6.086;2022-12-29T07:08:49;10.40;99.90
35445;DHT22;21562;49.476;6.086;2022-12-29T07:11:14;10.40;99.90
35445;DHT22;21562;49.476;6.086;2022-12-29T07:13:40;10.50;99.90
35445;DHT22;21562;49.476;6.086;2022-12-29T07:16:09;10.30;99.90
35445;DHT22;21562;49.476;6.086;2022-12-29T07:18:35;10.30;99.90
35445;DHT22;21562;49.476;6.086;2022-12-29T07:21:01;10.30;99.90
35445;DHT22;21562;49.476;6.086;2022-12-29T07:23:28;10.40;99.90
35445;DHT22;21562;49.476;6.086;2022-12-29T07:26:13;10.40;99.90
35445;DHT22;21562;49.476;6.086;2022-12-29T07:28:39;10.40;99.90
35445;DHT22;21562;49.476;6.086;2022-12-29T07:31:13;10.30;99.90
35445;DHT22;21562;49.476;6.086;2022-12-29T07:33:40;10.30;99.90
35445;DHT22;21562;49.476;6.086;2022-12-29T07:36:06;10.30;99.90
35445;DHT22;21562;49.476;6.086;2022-12-29T07:38:31;10.20;99.90
35445;DHT22;21562;49.476;6.086;2022-12-29T07:40:58;10.20;99.90
35445;DHT22;21562;49.476;6.086;2022-12-29T07:43:23;10.30;99.90
35445;DHT22;21562;49.476;6.086;2022-12-29T07:45:49;10.20;99.90
35445;DHT22;21562;49.476;6.086;2022-12-29T07:48:15;10.20;99.90
35445;DHT22;21562;49.476;6.086;2022-12-29T07:50:41;10.10;99.90
35445;DHT22;21562;49.476;6.086;2022-12-29T07:53:06;10.20;99.90
35445;DHT22;21562;49.476;6.086;2022-12-29T07:55:32;10.00;99.90
35445;DHT22;21562;49.476;6.086;2022-12-29T07:57:58;10.10;99.90
35445;DHT22;21562;49.476;6.086;2022-12-29T08:00:24;10.00;99.90
35445;DHT22;21562;49.476;6.086;2022-12-29T08:02:50;10.00;99.90
35445;DHT22;21562;49.476;6.086;2022-12-29T08:05:16;10.00;99.90
35445;DHT22;21562;49.476;6.086;2022-12-29T08:07:45;9.90;99.90
35445;DHT22;21562;49.476;6.086;2022-12-29T08:10:12;9.80;99.90
35445;DHT22;21562;49.476;6.086;2022-12-29T08:12:39;9.90;99.90
35445;DHT22;21562;49.476;6.086;2022-12-29T08:15:08;9.80;99.90
35445;DHT22;21562;49.476;6.086;2022-12-29T08:17:34;9.80;99.90
35445;DHT22;21562;49.476;6.086;2022-12-29T08:20:00;9.90;99.90
35445;DHT22;21562;49.476;6.086;2022-12-29T08:22:25;9.90;99.90
35445;DHT22;21562;49.476;6.086;2022-12-29T08:24:51;10.00;99.90
35445;DHT22;21562;49.476;6.086;2022-12-29T08:27:17;9.90;99.90
35445;DHT22;21562;49.476;6.086;2022-12-29T08:29:43;9.90;99.90
35445;DHT22;21562;49.476;6.086;2022-12-29T08:32:10;9.90;99.90
35445;DHT22;21562;49.476;6.086;2022-12-29T08:34:36;9.90;99.90
35445;DHT22;21562;49.476;6.086;2022-12-29T08:37:02;10.00;99.90
35445;DHT22;21562;49.476;6.086;2022-12-29T08:39:28;10.00;99.90
35445;DHT22;21562;49.476;6.086;2022-12-29T08:41:54;10.00;99.90
35445;DHT22;21562;49.476;6.086;2022-12-29T08:44:19;9.90;99.90
35445;DHT22;21562;49.476;6.086;2022-12-29T08:46:45;9.90;99.90
35445;DHT22;21562;49.476;6.086;2022-12-29T08:49:11;10.00;99.90
35445;DHT22;21562;49.476;6.086;2022-12-29T08:51:36;9.90;99.90
35445;DHT22;21562;49.476;6.086;2022-12-29T08:54:02;9.90;99.90
35445;DHT22;21562;49.476;6.086;2022-12-29T08:56:29;9.90;99.90
35445;DHT22;21562;49.476;6.086;2022-12-29T08:58:55;9.90;99.90
35445;DHT22;21562;49.476;6.086;2022-12-29T09:01:21;10.00;99.90
35445;DHT22;21562;49.476;6.086;2022-12-29T09:03:46;10.10;99.90
35445;DHT22;21562;49.476;6.086;2022-12-29T09:06:13;10.10;99.90
35445;DHT22;21562;49.476;6.086;2022-12-29T09:08:39;10.10;99.90
35445;DHT22;21562;49.476;6.086;2022-12-29T09:11:09;10.10;99.90
35445;DHT22;21562;49.476;6.086;2022-12-29T09:13:35;10.10;99.90
35445;DHT22;21562;49.476;6.086;2022-12-29T09:16:01;10.20;99.90
35445;DHT22;21562;49.476;6.086;2022-12-29T09:18:27;10.20;99.90
35445;DHT22;21562;49.476;6.086;2022-12-29T09:21:00;10.10;99.90
35445;DHT22;21562;49.476;6.086;2022-12-29T09:23:26;10.20;99.90
35445;DHT22;21562;49.476;6.086;2022-12-29T09:25:53;10.30;99.90
35445;DHT22;21562;49.476;6.086;2022-12-29T09:28:19;10.30;99.90
35445;DHT22;21562;49.476;6.086;2022-12-29T09:30:45;10.30;99.90
35445;DHT22;21562;49.476;6.086;2022-12-29T09:33:11;10.30;99.90
35445;DHT22;21562;49.476;6.086;2022-12-29T09:35:37;10.40;99.90
35445;DHT22;21562;49.476;6.086;2022-12-29T09:38:02;10.60;99.90
35445;DHT22;21562;49.476;6.086;2022-12-29T09:40:32;10.50;99.90
35445;DHT22;21562;49.476;6.086;2022-12-29T09:45:30;10.60;99.90
35445;DHT22;21562;49.476;6.086;2022-12-29T09:47:57;10.60;99.90
35445;DHT22;21562;49.476;6.086;2022-12-29T09:50:44;10.40;99.90
35445;DHT22;21562;49.476;6.086;2022-12-29T09:53:41;10.40;99.90
35445;DHT22;21562;49.476;6.086;2022-12-29T09:56:15;10.50;99.90
35445;DHT22;21562;49.476;6.086;2022-12-29T09:59:08;10.40;99.90
35445;DHT22;21562;49.476;6.086;2022-12-29T10:01:44;10.60;99.90
35445;DHT22;21562;49.476;6.086;2022-12-29T10:04:12;10.70;99.90
35445;DHT22;21562;49.476;6.086;2022-12-29T10:06:54;10.60;99.90
35445;DHT22;21562;49.476;6.086;2022-12-29T10:20:55;10.70;99.90
35445;DHT22;21562;49.476;6.086;2022-12-29T10:23:40;10.80;99.90
35445;DHT22;21562;49.476;6.086;2022-12-29T10:26:10;10.70;99.90
35445;DHT22;21562;49.476;6.086;2022-12-29T10:28:58;10.80;99.90
35445;DHT22;21562;49.476;6.086;2022-12-29T10:31:54;10.80;99.90
35445;DHT22;21562;49.476;6.086;2022-12-29T10:34:29;10.60;99.90
35445;DHT22;21562;49.476;6.086;2022-12-29T10:39:54;10.70;99.90
35445;DHT22;21562;49.476;6.086;2022-12-29T10:42:54;10.80;99.90
35445;DHT22;21562;49.476;6.086;2022-12-29T10:45:21;10.80;99.90
35445;DHT22;21562;49.476;6.086;2022-12-29T10:48:08;10.80;99.90
35445;DHT22;21562;49.476;6.086;2022-12-29T10:50:35;10.70;99.90
35445;DHT22;21562;49.476;6.086;2022-12-29T10:53:03;10.60;99.90
35445;DHT22;21562;49.476;6.086;2022-12-29T10:55:38;10.70;99.90
35445;DHT22;21562;49.476;6.086;2022-12-29T10:58:06;10.70;99.90
35445;DHT22;21562;49.476;6.086;2022-12-29T11:00:32;10.80;99.90
35445;DHT22;21562;49.476;6.086;2022-12-29T11:06:02;10.80;99.90
35445;DHT22;21562;49.476;6.086;2022-12-29T11:08:30;10.70;99.90
35445;DHT22;21562;49.476;6.086;2022-12-29T11:11:02;10.70;99.90
35445;DHT22;21562;49.476;6.086;2022-12-29T11:13:30;10.80;99.90
35445;DHT22;21562;49.476;6.086;2022-12-29T11:15:56;10.90;99.90
35445;DHT22;21562;49.476;6.086;2022-12-29T11:18:36;10.90;99.90
35445;DHT22;21562;49.476;6.086;2022-12-29T11:21:05;10.80;99.90
35445;DHT22;21562;49.476;6.086;2022-12-29T11:23:39;10.70;99.90
35445;DHT22;21562;49.476;6.086;2022-12-29T11:28:39;10.80;99.90
35445;DHT22;21562;49.476;6.086;2022-12-29T11:31:07;10.90;99.90
35445;DHT22;21562;49.476;6.086;2022-12-29T11:33:36;10.80;99.90
35445;DHT22;21562;49.476;6.086;2022-12-29T11:36:05;10.70;99.90
35445;DHT22;21562;49.476;6.086;2022-12-29T11:38:39;10.80;99.90
35445;DHT22;21562;49.476;6.086;2022-12-29T11:41:06;10.80;99.90
35445;DHT22;21562;49.476;6.086;2022-12-29T11:43:41;10.70;99.90
35445;DHT22;21562;49.476;6.086;2022-12-29T11:46:15;10.90;99.90
35445;DHT22;21562;49.476;6.086;2022-12-29T11:48:42;10.90;99.90
35445;DHT22;21562;49.476;6.086;2022-12-29T11:51:09;11.00;99.90
35445;DHT22;21562;49.476;6.086;2022-12-29T11:54:00;11.00;99.90
35445;DHT22;21562;49.476;6.086;2022-12-29T11:56:36;10.80;99.90
35445;DHT22;21562;49.476;6.086;2022-12-29T11:59:43;10.70;99.90
35445;DHT22;21562;49.476;6.086;2022-12-29T12:05:19;10.80;99.90
35445;DHT22;21562;49.476;6.086;2022-12-29T12:07:59;10.70;99.90
35445;DHT22;21562;49.476;6.086;2022-12-29T12:10:34;10.70;99.90
35445;DHT22;21562;49.476;6.086;2022-12-29T12:13:11;10.60;99.90
35445;DHT22;21562;49.476;6.086;2022-12-29T12:15:44;10.70;99.90
35445;DHT22;21562;49.476;6.086;2022-12-29T12:21:04;10.80;99.90
35445;DHT22;21562;49.476;6.086;2022-12-29T12:24:02;10.90;99.90
35445;DHT22;21562;49.476;6.086;2022-12-29T12:29:24;11.00;99.90
35445;DHT22;21562;49.476;6.086;2022-12-29T12:32:05;10.90;99.90
35445;DHT22;21562;49.476;6.086;2022-12-29T12:34:41;10.90;99.90
35445;DHT22;21562;49.476;6.086;2022-12-29T12:43:03;10.70;99.90
35445;DHT22;21562;49.476;6.086;2022-12-29T12:51:13;10.70;99.90
35445;DHT22;21562;49.476;6.086;2022-12-29T13:04:32;10.80;99.90
35445;DHT22;21562;49.476;6.086;2022-12-29T13:10:24;10.90;99.90
35445;DHT22;21562;49.476;6.086;2022-12-29T13:18:14;10.90;99.90
35445;DHT22;21562;49.476;6.086;2022-12-29T13:20:53;11.10;99.90
35445;DHT22;21562;49.476;6.086;2022-12-29T13:28:41;10.90;99.90
35445;DHT22;21562;49.476;6.086;2022-12-29T13:36:33;10.80;99.90
35445;DHT22;21562;49.476;6.086;2022-12-29T13:39:09;10.90;99.90
35445;DHT22;21562;49.476;6.086;2022-12-29T13:44:23;10.90;99.90
35445;DHT22;21562;49.476;6.086;2022-12-29T13:46:49;10.90;99.90
35445;DHT22;21562;49.476;6.086;2022-12-29T13:49:19;10.90;99.90
35445;DHT22;21562;49.476;6.086;2022-12-29T13:52:03;10.90;99.90
35445;DHT22;21562;49.476;6.086;2022-12-29T13:54:55;11.00;99.90
35445;DHT22;21562;49.476;6.086;2022-12-29T14:00:13;11.00;99.90
35445;DHT22;21562;49.476;6.086;2022-12-29T14:07:44;11.60;99.90
35445;DHT22;21562;49.476;6.086;2022-12-29T14:10:31;11.20;99.90
35445;DHT22;21562;49.476;6.086;2022-12-29T14:13:13;10.90;99.90
35445;DHT22;21562;49.476;6.086;2022-12-29T14:15:42;11.00;99.90
35445;DHT22;21562;49.476;6.086;2022-12-29T14:18:20;10.80;99.90
35445;DHT22;21562;49.476;6.086;2022-12-29T14:21:00;10.70;99.90
35445;DHT22;21562;49.476;6.086;2022-12-29T14:26:13;10.50;99.90
35445;DHT22;21562;49.476;6.086;2022-12-29T14:28:48;10.40;99.90
35445;DHT22;21562;49.476;6.086;2022-12-29T14:33:40;10.40;99.90
35445;DHT22;21562;49.476;6.086;2022-12-29T14:36:22;10.50;99.90
35445;DHT22;21562;49.476;6.086;2022-12-29T14:38:51;10.40;99.90
35445;DHT22;21562;49.476;6.086;2022-12-29T14:41:23;10.50;99.90
35445;DHT22;21562;49.476;6.086;2022-12-29T14:47:05;10.60;99.90
35445;DHT22;21562;49.476;6.086;2022-12-29T14:49:39;10.60;99.90
35445;DHT22;21562;49.476;6.086;2022-12-29T14:52:20;10.50;99.90
35445;DHT22;21562;49.476;6.086;2022-12-29T14:54:51;10.50;99.90
35445;DHT22;21562;49.476;6.086;2022-12-29T14:57:27;10.40;99.90
35445;DHT22;21562;49.476;6.086;2022-12-29T15:00:00;10.40;99.90
35445;DHT22;21562;49.476;6.086;2022-12-29T15:02:33;10.40;99.90
35445;DHT22;21562;49.476;6.086;2022-12-29T15:05:00;10.60;99.90
35445;DHT22;21562;49.476;6.086;2022-12-29T15:07:29;10.70;99.90
35445;DHT22;21562;49.476;6.086;2022-12-29T15:10:00;10.60;99.90
35445;DHT22;21562;49.476;6.086;2022-12-29T15:12:49;10.50;99.90
35445;DHT22;21562;49.476;6.086;2022-12-29T15:15:21;10.30;99.90
35445;DHT22;21562;49.476;6.086;2022-12-29T15:17:47;10.30;99.90
35445;DHT22;21562;49.476;6.086;2022-12-29T15:23:11;10.40;99.90
35445;DHT22;21562;49.476;6.086;2022-12-29T15:28:20;10.50;99.90
35445;DHT22;21562;49.476;6.086;2022-12-29T15:31:11;10.40;99.90
35445;DHT22;21562;49.476;6.086;2022-12-29T15:33:40;10.40;99.90
35445;DHT22;21562;49.476;6.086;2022-12-29T15:36:12;10.30;99.90
35445;DHT22;21562;49.476;6.086;2022-12-29T15:38:39;10.40;99.90
35445;DHT22;21562;49.476;6.086;2022-12-29T15:41:13;10.30;99.90
35445;DHT22;21562;49.476;6.086;2022-12-29T15:44:15;10.20;99.90
35445;DHT22;21562;49.476;6.086;2022-12-29T15:46:42;10.10;99.90
35445;DHT22;21562;49.476;6.086;2022-12-29T15:49:08;10.10;99.90
35445;DHT22;21562;49.476;6.086;2022-12-29T15:51:38;10.20;99.90
35445;DHT22;21562;49.476;6.086;2022-12-29T15:54:05;10.00;99.90
35445;DHT22;21562;49.476;6.086;2022-12-29T15:56:32;10.00;99.90
35445;DHT22;21562;49.476;6.086;2022-12-29T15:58:59;10.20;99.90
35445;DHT22;21562;49.476;6.086;2022-12-29T16:01:32;10.20;99.90
35445;DHT22;21562;49.476;6.086;2022-12-29T16:04:00;10.30;99.90
35445;DHT22;21562;49.476;6.086;2022-12-29T16:06:33;10.10;99.90
35445;DHT22;21562;49.476;6.086;2022-12-29T16:09:46;10.00;99.90
35445;DHT22;21562;49.476;6.086;2022-12-29T16:12:02;9.90;99.90
35445;DHT22;21562;49.476;6.086;2022-12-29T16:14:41;10.00;99.90
35445;DHT22;21562;49.476;6.086;2022-12-29T16:17:12;10.00;99.90
35445;DHT22;21562;49.476;6.086;2022-12-29T16:19:43;10.10;99.90
35445;DHT22;21562;49.476;6.086;2022-12-29T16:22:36;10.20;99.90
35445;DHT22;21562;49.476;6.086;2022-12-29T16:25:21;10.40;99.90
35445;DHT22;21562;49.476;6.086;2022-12-29T16:27:49;10.20;99.90
35445;DHT22;21562;49.476;6.086;2022-12-29T16:30:24;10.40;99.90
35445;DHT22;21562;49.476;6.086;2022-12-29T16:32:53;10.40;99.90
35445;DHT22;21562;49.476;6.086;2022-12-29T16:35:27;10.50;99.90
35445;DHT22;21562;49.476;6.086;2022-12-29T16:38:13;10.60;99.90
35445;DHT22;21562;49.476;6.086;2022-12-29T16:40:56;10.70;99.90
35445;DHT22;21562;49.476;6.086;2022-12-29T16:43:33;10.50;99.90
35445;DHT22;21562;49.476;6.086;2022-12-29T16:48:35;10.20;99.90
35445;DHT22;21562;49.476;6.086;2022-12-29T16:51:13;10.20;99.90
35445;DHT22;21562;49.476;6.086;2022-12-29T16:53:42;10.30;99.90
35445;DHT22;21562;49.476;6.086;2022-12-29T16:56:19;10.30;99.90
35445;DHT22;21562;49.476;6.086;2022-12-29T16:58:51;10.30;99.90
35445;DHT22;21562;49.476;6.086;2022-12-29T17:01:20;10.50;99.90
35445;DHT22;21562;49.476;6.086;2022-12-29T17:03:51;10.20;99.90
35445;DHT22;21562;49.476;6.086;2022-12-29T17:06:19;10.30;99.90
35445;DHT22;21562;49.476;6.086;2022-12-29T17:08:46;10.20;99.90
35445;DHT22;21562;49.476;6.086;2022-12-29T17:14:05;10.50;99.90
35445;DHT22;21562;49.476;6.086;2022-12-29T17:16:31;10.30;99.90
35445;DHT22;21562;49.476;6.086;2022-12-29T17:18:57;10.20;99.90
35445;DHT22;21562;49.476;6.086;2022-12-29T17:21:22;10.00;99.90
35445;DHT22;21562;49.476;6.086;2022-12-29T17:23:48;9.90;99.90
35445;DHT22;21562;49.476;6.086;2022-12-29T17:26:14;9.90;99.90
35445;DHT22;21562;49.476;6.086;2022-12-29T17:28:39;10.00;99.90
35445;DHT22;21562;49.476;6.086;2022-12-29T17:31:06;10.10;99.90
35445;DHT22;21562;49.476;6.086;2022-12-29T17:33:36;10.00;99.90
35445;DHT22;21562;49.476;6.086;2022-12-29T17:36:02;9.90;99.90
35445;DHT22;21562;49.476;6.086;2022-12-29T17:38:30;9.90;99.90
35445;DHT22;21562;49.476;6.086;2022-12-29T17:40:57;9.80;99.90
35445;DHT22;21562;49.476;6.086;2022-12-29T17:43:23;9.90;99.90
35445;DHT22;21562;49.476;6.086;2022-12-29T17:45:57;9.70;99.90
35445;DHT22;21562;49.476;6.086;2022-12-29T17:48:24;9.90;99.90
35445;DHT22;21562;49.476;6.086;2022-12-29T17:50:51;9.70;99.90
35445;DHT22;21562;49.476;6.086;2022-12-29T17:53:25;9.70;99.90
35445;DHT22;21562;49.476;6.086;2022-12-29T17:55:52;9.80;99.90
35445;DHT22;21562;49.476;6.086;2022-12-29T17:58:23;9.90;99.90
35445;DHT22;21562;49.476;6.086;2022-12-29T18:00:51;9.90;99.90
35445;DHT22;21562;49.476;6.086;2022-12-29T18:03:27;9.70;99.90
35445;DHT22;21562;49.476;6.086;2022-12-29T18:05:53;9.50;99.90
35445;DHT22;21562;49.476;6.086;2022-12-29T18:08:19;9.50;99.90
35445;DHT22;21562;49.476;6.086;2022-12-29T18:10:45;9.50;99.90
35445;DHT22;21562;49.476;6.086;2022-12-29T18:13:23;9.40;99.90
35445;DHT22;21562;49.476;6.086;2022-12-29T18:15:50;9.50;99.90
35445;DHT22;21562;49.476;6.086;2022-12-29T18:18:18;9.50;99.90
35445;DHT22;21562;49.476;6.086;2022-12-29T18:20:46;9.50;99.90
35445;DHT22;21562;49.476;6.086;2022-12-29T18:23:21;9.60;99.90